createdAt,value
2022-12-06T00:01:07.965Z,21.43
2022-12-06T00:03:35.707Z,21.47
2022-12-06T00:06:11.792Z,22.97
2022-12-06T00:08:39.666Z,19.60
2022-12-06T00:11:09.271Z,20.53
2022-12-06T00:13:37.160Z,19.93
2022-12-06T00:16:07.470Z,26.67
2022-12-06T00:18:36.404Z,21.43
2022-12-06T00:21:11.502Z,29.40
2022-12-06T00:23:44.541Z,25.03
2022-12-06T00:26:11.956Z,23.17
2022-12-06T00:28:39.701Z,25.63
2022-12-06T00:31:10.156Z,28.20
2022-12-06T00:33:37.914Z,27.17
2022-12-06T00:36:14.044Z,35.57
2022-12-06T00:38:40.996Z,30.37
2022-12-06T00:41:11.107Z,22.80
2022-12-06T00:43:38.476Z,33.67
2022-12-06T00:46:08.175Z,26.60
2022-12-06T00:48:35.626Z,24.50
2022-12-06T00:51:02.686Z,24.70
2022-12-06T00:53:30.047Z,23.53
2022-12-06T00:55:57.194Z,24.90
2022-12-06T00:58:24.477Z,24.33
2022-12-06T01:00:51.558Z,24.93
2022-12-06T01:03:19.056Z,25.13
2022-12-06T01:05:49.127Z,24.83
2022-12-06T01:08:18.082Z,24.13
2022-12-06T01:10:53.467Z,25.73
2022-12-06T01:13:20.923Z,27.00
2022-12-06T01:15:47.950Z,25.87
2022-12-06T01:18:14.921Z,25.07
2022-12-06T01:20:41.861Z,26.13
2022-12-06T01:23:08.839Z,25.87
2022-12-06T01:25:36.591Z,24.93
2022-12-06T01:28:04.056Z,25.10
2022-12-06T01:30:31.218Z,23.20
2022-12-06T01:32:58.207Z,25.10
2022-12-06T01:35:25.043Z,25.00
2022-12-06T01:37:51.962Z,24.23
2022-12-06T01:40:18.866Z,23.77
2022-12-06T01:42:45.790Z,25.00
2022-12-06T01:45:12.726Z,25.40
2022-12-06T01:47:42.951Z,23.03
2022-12-06T01:50:21.911Z,23.93
2022-12-06T01:52:56.885Z,24.00
2022-12-06T01:55:27.878Z,25.10
2022-12-06T01:57:59.609Z,23.80
2022-12-06T02:00:26.635Z,23.90
2022-12-06T02:02:57.611Z,24.70
2022-12-06T02:05:25.457Z,23.43
2022-12-06T02:07:53.249Z,23.37
2022-12-06T02:10:20.668Z,28.93
2022-12-06T02:12:52.422Z,31.23
2022-12-06T02:15:22.232Z,26.33
2022-12-06T02:17:57.993Z,24.40
2022-12-06T02:20:32.830Z,24.03
2022-12-06T02:23:27.210Z,23.40
2022-12-06T02:26:33.339Z,23.03
2022-12-06T02:29:24.594Z,23.10
2022-12-06T02:31:51.544Z,23.60
2022-12-06T02:34:30.488Z,22.03
2022-12-06T02:37:23.580Z,21.13
2022-12-06T02:40:06.683Z,21.77
2022-12-06T02:43:03.735Z,24.07
2022-12-06T02:45:35.877Z,23.97
2022-12-06T02:48:04.295Z,24.33
2022-12-06T02:50:42.227Z,23.30
2022-12-06T02:53:14.068Z,22.70
2022-12-06T02:55:45.005Z,22.57
2022-12-06T02:58:12.028Z,23.23
2022-12-06T03:00:42.786Z,23.77
2022-12-06T03:03:31.135Z,22.13
2022-12-06T03:06:01.173Z,22.33
2022-12-06T03:08:49.708Z,22.10
2022-12-06T03:11:17.380Z,21.20
2022-12-06T03:13:51.212Z,23.50
2022-12-06T03:16:35.415Z,22.07
2022-12-06T03:19:12.608Z,21.20
2022-12-06T03:21:44.443Z,22.20
2022-12-06T03:24:14.266Z,21.30
2022-12-06T03:26:45.697Z,23.30
2022-12-06T03:29:16.448Z,21.43
2022-12-06T03:31:44.999Z,22.23
2022-12-06T03:34:23.629Z,20.47
2022-12-06T03:36:53.173Z,20.73
2022-12-06T03:39:30.467Z,20.20
2022-12-06T03:41:59.253Z,19.23
2022-12-06T03:44:26.719Z,20.43
2022-12-06T03:47:02.194Z,20.67
2022-12-06T03:49:54.400Z,20.97
2022-12-06T03:52:23.896Z,20.23
2022-12-06T03:54:51.429Z,24.03
2022-12-06T03:57:18.443Z,22.87
2022-12-06T03:59:46.302Z,23.90
2022-12-06T04:02:13.353Z,26.97
2022-12-06T04:04:41.496Z,25.50
2022-12-06T04:07:10.312Z,22.00
2022-12-06T04:09:52.373Z,20.33
2022-12-06T04:12:38.571Z,21.63
2022-12-06T04:15:07.085Z,16.40
2022-12-06T04:17:53.038Z,26.73
2022-12-06T04:20:19.963Z,20.10
2022-12-06T04:23:04.988Z,18.33
2022-12-06T04:25:36.640Z,18.60
2022-12-06T04:28:22.645Z,17.47
2022-12-06T04:31:08.244Z,17.77
2022-12-06T04:33:53.667Z,19.17
2022-12-06T04:36:39.038Z,16.97
2022-12-06T04:39:06.354Z,17.17
2022-12-06T04:41:51.881Z,18.00
2022-12-06T04:44:18.867Z,17.77
2022-12-06T04:46:45.859Z,16.57
2022-12-06T04:49:12.819Z,17.90
2022-12-06T04:51:39.795Z,15.33
2022-12-06T04:54:07.259Z,17.33
2022-12-06T04:56:34.628Z,17.47
2022-12-06T04:59:02.239Z,16.67
2022-12-06T05:01:29.243Z,16.77
2022-12-06T05:03:59.138Z,17.30
2022-12-06T05:06:26.147Z,16.90
2022-12-06T05:08:53.023Z,17.50
2022-12-06T05:11:19.984Z,16.73
2022-12-06T05:13:46.871Z,17.10
2022-12-06T05:16:13.923Z,17.30
2022-12-06T05:18:40.868Z,18.43
2022-12-06T05:21:11.999Z,17.97
2022-12-06T05:23:38.973Z,18.07
2022-12-06T05:26:08.570Z,18.17
2022-12-06T05:28:35.503Z,17.33
2022-12-06T05:31:02.499Z,19.53
2022-12-06T05:33:29.757Z,19.43
2022-12-06T05:35:56.915Z,19.33
2022-12-06T05:38:24.694Z,18.67
2022-12-06T05:40:51.805Z,20.87
2022-12-06T05:43:18.681Z,20.87
2022-12-06T05:45:45.683Z,20.37
2022-12-06T05:48:12.665Z,19.87
2022-12-06T05:50:39.656Z,22.97
2022-12-06T05:53:06.588Z,29.33
2022-12-06T05:55:33.508Z,25.33
2022-12-06T05:58:00.394Z,22.57
2022-12-06T06:00:27.441Z,21.23
2022-12-06T06:02:54.466Z,21.67
2022-12-06T06:05:21.495Z,23.13
2022-12-06T06:07:48.535Z,27.03
2022-12-06T06:10:16.370Z,25.47
2022-12-06T06:12:44.729Z,30.47
2022-12-06T06:15:15.892Z,26.00
2022-12-06T06:17:43.432Z,24.07
2022-12-06T06:20:13.740Z,23.43
2022-12-06T06:22:41.967Z,21.87
2022-12-06T06:25:09.342Z,24.07
2022-12-06T06:27:37.986Z,22.90
2022-12-06T06:30:07.475Z,21.27
2022-12-06T06:32:34.995Z,21.00
2022-12-06T06:35:02.162Z,22.17
2022-12-06T06:37:29.335Z,21.37
2022-12-06T06:39:56.451Z,21.87
2022-12-06T06:42:23.516Z,21.23
2022-12-06T06:44:50.456Z,21.87
2022-12-06T06:47:17.337Z,22.90
2022-12-06T06:49:44.176Z,21.80
2022-12-06T06:52:11.045Z,22.37
2022-12-06T06:54:37.998Z,22.20
2022-12-06T06:57:05.058Z,22.33
2022-12-06T06:59:32.114Z,19.97
2022-12-06T07:01:59.167Z,21.57
2022-12-06T07:04:26.105Z,21.53
2022-12-06T07:06:53.022Z,21.63
2022-12-06T07:09:20.041Z,22.13
2022-12-06T07:11:46.957Z,21.03
2022-12-06T07:14:13.816Z,20.97
2022-12-06T07:16:40.805Z,20.53
2022-12-06T07:19:09.326Z,21.87
2022-12-06T07:21:36.297Z,21.80
2022-12-06T07:24:03.229Z,22.07
2022-12-06T07:26:30.220Z,21.93
2022-12-06T07:28:57.943Z,21.93
2022-12-06T07:31:27.192Z,21.60
2022-12-06T07:33:56.618Z,21.37
2022-12-06T07:36:24.391Z,22.10
2022-12-06T07:38:53.242Z,22.57
2022-12-06T07:41:40.052Z,21.37
2022-12-06T07:44:33.771Z,21.70
2022-12-06T07:47:01.064Z,22.07
2022-12-06T07:49:28.346Z,22.97
2022-12-06T07:51:56.050Z,20.70
2022-12-06T07:54:24.278Z,22.03
2022-12-06T07:56:51.267Z,21.73
2022-12-06T07:59:18.461Z,22.20
2022-12-06T08:01:45.539Z,22.73
2022-12-06T08:04:12.605Z,23.50
2022-12-06T08:06:40.379Z,32.53
2022-12-06T08:09:33.181Z,39.47
2022-12-06T08:12:02.989Z,33.27
2022-12-06T08:14:30.344Z,38.07
2022-12-06T08:17:00.162Z,36.10
2022-12-06T08:19:30.184Z,37.50
2022-12-06T08:21:57.163Z,33.50
2022-12-06T08:24:26.025Z,26.60
2022-12-06T08:26:55.088Z,25.57
2022-12-06T08:29:22.941Z,27.20
2022-12-06T08:31:50.147Z,26.97
2022-12-06T08:34:17.626Z,22.97
2022-12-06T08:36:47.205Z,25.30
2022-12-06T08:39:16.642Z,24.00
2022-12-06T08:41:55.314Z,23.80
2022-12-06T08:44:22.729Z,23.10
2022-12-06T08:46:49.730Z,23.63
2022-12-06T08:49:20.688Z,22.70
2022-12-06T08:51:47.826Z,20.97
2022-12-06T08:54:17.100Z,20.97
2022-12-06T08:56:44.636Z,20.60
2022-12-06T08:59:17.241Z,20.50
2022-12-06T09:01:45.182Z,20.50
2022-12-06T09:04:12.957Z,21.93
2022-12-06T09:06:41.873Z,20.13
2022-12-06T09:09:13.808Z,19.60
2022-12-06T09:11:47.805Z,19.37
2022-12-06T09:14:22.304Z,18.83
2022-12-06T09:16:58.319Z,18.63
2022-12-06T09:19:28.319Z,19.97
2022-12-06T09:21:55.478Z,19.67
2022-12-06T09:24:22.728Z,21.47
2022-12-06T09:26:49.964Z,38.87
2022-12-06T09:29:17.817Z,42.10
2022-12-06T09:31:45.122Z,26.53
2022-12-06T09:34:12.955Z,22.13
2022-12-06T09:36:45.200Z,22.47
2022-12-06T09:39:34.008Z,20.23
2022-12-06T09:43:08.160Z,22.00
2022-12-06T09:45:34.788Z,28.97
2022-12-06T09:48:08.435Z,23.67
2022-12-06T09:50:55.790Z,24.63
2022-12-06T09:53:51.917Z,24.73
2022-12-06T09:56:44.281Z,22.27
2022-12-06T09:59:24.507Z,20.17
2022-12-06T10:02:37.191Z,20.40
2022-12-06T10:05:51.834Z,18.67
2022-12-06T10:08:21.987Z,22.40
2022-12-06T10:11:18.618Z,20.27
2022-12-06T10:13:45.626Z,23.07
2022-12-06T10:16:45.058Z,21.40
2022-12-06T10:19:46.017Z,22.30
2022-12-06T10:22:30.231Z,20.43
2022-12-06T10:25:01.898Z,20.53
2022-12-06T10:27:58.379Z,18.43
2022-12-06T10:30:25.642Z,17.23
2022-12-06T10:33:05.414Z,15.67
2022-12-06T10:35:57.164Z,15.27
2022-12-06T10:39:00.594Z,13.93
2022-12-06T10:42:23.132Z,12.53
2022-12-06T10:45:02.473Z,12.03
2022-12-06T10:47:38.168Z,11.63
2022-12-06T10:50:21.806Z,12.00
2022-12-06T10:52:57.227Z,15.30
2022-12-06T10:55:50.070Z,13.47
2022-12-06T10:58:22.868Z,12.13
2022-12-06T11:00:58.732Z,12.20
2022-12-06T11:03:43.263Z,11.13
2022-12-06T11:06:28.539Z,11.63
2022-12-06T11:09:01.149Z,11.27
2022-12-06T11:11:36.024Z,12.00
2022-12-06T11:14:36.183Z,11.50
2022-12-06T11:17:12.126Z,12.10
2022-12-06T11:19:44.227Z,12.27
2022-12-06T11:22:14.110Z,13.50
2022-12-06T11:24:49.383Z,11.97
2022-12-06T11:27:33.292Z,13.23
2022-12-06T11:30:02.738Z,12.50
2022-12-06T11:32:30.142Z,13.10
2022-12-06T11:34:59.387Z,12.30
2022-12-06T11:37:31.876Z,14.70
2022-12-06T11:40:30.595Z,12.60
2022-12-06T11:43:02.537Z,11.83
2022-12-06T11:45:34.658Z,10.90
2022-12-06T11:48:13.967Z,11.23
2022-12-06T11:50:42.586Z,12.53
2022-12-06T11:53:28.348Z,11.20
2022-12-06T11:56:00.863Z,12.47
2022-12-06T11:58:37.829Z,11.53
2022-12-06T12:01:16.369Z,14.40
2022-12-06T12:03:45.083Z,14.37
2022-12-06T12:06:27.358Z,17.20
2022-12-06T12:09:03.079Z,12.33
2022-12-06T12:11:32.744Z,13.10
2022-12-06T12:14:02.806Z,11.30
2022-12-06T12:16:37.367Z,10.37
2022-12-06T12:19:39.320Z,11.30
2022-12-06T12:22:29.181Z,10.83
2022-12-06T12:25:18.436Z,11.80
2022-12-06T12:27:55.209Z,12.70
2022-12-06T12:30:24.552Z,18.87
2022-12-06T12:33:05.411Z,9.93
2022-12-06T12:36:04.411Z,8.07
2022-12-06T12:38:49.297Z,8.10
2022-12-06T12:41:28.254Z,7.43
2022-12-06T12:44:37.201Z,7.63
2022-12-06T12:46:56.979Z,7.63
2022-12-06T12:49:23.971Z,9.00
2022-12-06T12:52:44.651Z,8.87
2022-12-06T12:55:21.223Z,9.70
2022-12-06T12:58:00.094Z,11.13
2022-12-06T13:00:37.485Z,11.73
2022-12-06T13:03:28.544Z,18.63
2022-12-06T13:05:57.570Z,13.37
2022-12-06T13:08:33.553Z,12.77
2022-12-06T13:11:03.128Z,11.27
2022-12-06T13:14:00.312Z,11.93
2022-12-06T13:16:35.362Z,10.60
2022-12-06T13:19:02.772Z,10.43
2022-12-06T13:21:40.473Z,11.50
2022-12-06T13:24:10.455Z,11.93
2022-12-06T13:26:43.263Z,10.03
2022-12-06T13:29:38.127Z,11.27
2022-12-06T13:32:32.347Z,10.50
2022-12-06T13:35:07.489Z,11.73
2022-12-06T13:37:44.576Z,10.77
2022-12-06T13:40:33.501Z,14.70
2022-12-06T13:43:02.735Z,19.37
2022-12-06T13:45:49.899Z,20.53
2022-12-06T13:48:36.558Z,15.33
2022-12-06T13:51:26.077Z,11.43
2022-12-06T13:54:05.209Z,11.40
2022-12-06T13:56:35.120Z,12.80
2022-12-06T13:59:13.023Z,11.87
2022-12-06T14:01:44.124Z,12.43
2022-12-06T14:07:04.488Z,14.70
2022-12-06T14:09:41.654Z,14.77
2022-12-06T14:12:25.046Z,16.23
2022-12-06T14:15:05.825Z,15.90
2022-12-06T14:20:30.349Z,14.07
2022-12-06T14:22:58.200Z,13.87
2022-12-06T14:25:31.747Z,17.23
2022-12-06T14:28:06.105Z,17.80
2022-12-06T14:30:41.087Z,11.07
2022-12-06T14:33:22.254Z,12.03
2022-12-06T14:35:52.202Z,10.23
2022-12-06T14:38:28.333Z,10.57
2022-12-06T14:41:14.391Z,10.23
2022-12-06T14:43:42.432Z,10.27
2022-12-06T14:46:15.546Z,10.47
2022-12-06T14:49:04.769Z,10.03
2022-12-06T14:51:41.027Z,11.60
2022-12-06T14:54:32.699Z,29.57
2022-12-06T14:57:00.495Z,32.03
2022-12-06T15:02:29.101Z,15.60
2022-12-06T15:04:56.165Z,11.87
2022-12-06T15:07:44.579Z,14.47
2022-12-06T15:10:30.148Z,43.10
2022-12-06T15:13:08.145Z,17.57
2022-12-06T15:15:40.208Z,14.50
2022-12-06T15:18:13.318Z,14.97
2022-12-06T15:20:40.787Z,14.80
2022-12-06T15:23:26.111Z,16.47
2022-12-06T15:25:53.278Z,14.60
2022-12-06T15:28:26.932Z,12.97
2022-12-06T15:30:54.392Z,17.37
2022-12-06T15:33:24.404Z,20.23
2022-12-06T15:35:52.070Z,23.60
2022-12-06T15:38:20.967Z,23.60
2022-12-06T15:40:50.581Z,22.77
2022-12-06T15:43:29.150Z,18.70
2022-12-06T15:45:57.522Z,21.03
2022-12-06T15:48:24.487Z,19.30
2022-12-06T15:50:51.471Z,19.93
2022-12-06T15:53:21.188Z,16.27
2022-12-06T15:55:48.265Z,20.80
2022-12-06T15:58:15.284Z,16.03
2022-12-06T16:00:42.685Z,15.00
2022-12-06T16:03:10.036Z,14.37
2022-12-06T16:05:37.087Z,14.07
2022-12-06T16:08:04.461Z,14.07
2022-12-06T16:10:55.641Z,13.50
2022-12-06T16:13:24.465Z,17.27
2022-12-06T16:15:52.703Z,17.97
2022-12-06T16:18:20.074Z,18.03
2022-12-06T16:20:47.624Z,22.33
2022-12-06T16:24:11.397Z,14.23
2022-12-06T16:26:26.987Z,16.27
2022-12-06T16:28:54.353Z,15.40
2022-12-06T16:31:21.354Z,26.47
2022-12-06T16:33:48.370Z,26.37
2022-12-06T16:36:25.744Z,25.70
2022-12-06T16:38:57.723Z,17.37
2022-12-06T16:41:32.075Z,16.53
2022-12-06T16:43:59.018Z,14.63
2022-12-06T16:46:45.753Z,15.07
2022-12-06T16:49:48.366Z,16.87
2022-12-06T16:52:16.754Z,18.60
2022-12-06T16:54:44.189Z,13.73
2022-12-06T16:57:12.647Z,13.93
2022-12-06T16:59:40.651Z,14.47
2022-12-06T17:02:24.314Z,14.50
2022-12-06T17:04:51.235Z,13.57
2022-12-06T17:07:18.374Z,13.57
2022-12-06T17:09:45.338Z,13.67
2022-12-06T17:12:14.984Z,13.87
2022-12-06T17:14:42.533Z,13.63
2022-12-06T17:17:14.926Z,13.50
2022-12-06T17:19:43.330Z,15.03
2022-12-06T17:22:11.884Z,14.87
2022-12-06T17:24:39.272Z,14.13
2022-12-06T17:27:08.795Z,14.73
2022-12-06T17:29:36.253Z,13.83
2022-12-06T17:32:03.172Z,14.40
2022-12-06T17:34:32.806Z,13.67
2022-12-06T17:37:00.702Z,14.53
2022-12-06T17:39:27.642Z,14.00
2022-12-06T17:42:13.393Z,14.77
2022-12-06T17:44:40.506Z,15.27
2022-12-06T17:47:07.385Z,15.53
2022-12-06T17:49:38.402Z,15.97
2022-12-06T17:52:05.795Z,16.80
2022-12-06T17:54:32.913Z,18.90
2022-12-06T17:57:01.108Z,22.20
2022-12-06T17:59:30.338Z,44.30
2022-12-06T18:02:15.616Z,19.93
2022-12-06T18:07:35.526Z,16.40
2022-12-06T18:10:02.699Z,14.63
2022-12-06T18:12:31.806Z,15.17
2022-12-06T18:15:27.399Z,19.20
2022-12-06T18:17:54.480Z,18.00
2022-12-06T18:20:23.917Z,15.43
2022-12-06T18:22:53.913Z,23.33
2022-12-06T18:25:20.858Z,48.73
2022-12-06T18:27:50.163Z,26.03
2022-12-06T18:30:17.608Z,25.07
2022-12-06T18:33:25.402Z,19.17
2022-12-06T18:35:56.453Z,14.43
2022-12-06T18:38:23.429Z,16.40
2022-12-06T18:41:04.214Z,15.93
2022-12-06T18:43:36.262Z,15.93
2022-12-06T18:46:33.315Z,18.97
2022-12-06T18:49:01.035Z,28.57
2022-12-06T18:51:33.013Z,17.30
2022-12-06T18:54:14.284Z,15.50
2022-12-06T18:56:44.941Z,16.43
2022-12-06T18:59:12.464Z,13.97
2022-12-06T19:01:45.828Z,15.97
2022-12-06T19:04:19.615Z,15.00
2022-12-06T19:06:47.194Z,14.33
2022-12-06T19:09:18.663Z,14.63
2022-12-06T19:11:46.408Z,16.00
2022-12-06T19:14:13.942Z,15.53
2022-12-06T19:16:46.386Z,15.60
2022-12-06T19:19:22.698Z,30.30
2022-12-06T19:21:54.178Z,20.93
2022-12-06T19:24:23.791Z,29.57
2022-12-06T19:26:52.400Z,21.30
2022-12-06T19:29:24.494Z,16.77
2022-12-06T19:31:51.923Z,15.17
2022-12-06T19:34:38.421Z,16.70
2022-12-06T19:37:08.577Z,16.33
2022-12-06T19:39:38.352Z,15.87
2022-12-06T19:42:23.653Z,16.13
2022-12-06T19:44:50.625Z,18.23
2022-12-06T19:47:17.570Z,15.50
2022-12-06T19:49:44.521Z,17.00
2022-12-06T19:52:17.571Z,16.50
2022-12-06T19:54:45.116Z,18.20
2022-12-06T19:57:15.496Z,17.53
2022-12-06T19:59:42.566Z,16.30
2022-12-06T20:02:14.848Z,18.50
2022-12-06T20:04:42.314Z,17.67
2022-12-06T20:07:10.130Z,16.10
2022-12-06T20:09:39.949Z,16.87
2022-12-06T20:12:07.607Z,15.83
2022-12-06T20:14:36.286Z,15.83
2022-12-06T20:17:06.680Z,15.57
2022-12-06T20:19:38.106Z,16.37
2022-12-06T20:22:05.389Z,15.83
2022-12-06T20:24:32.973Z,16.23
2022-12-06T20:26:59.998Z,16.60
2022-12-06T20:29:30.163Z,17.73
2022-12-06T20:32:01.208Z,20.70
2022-12-06T20:34:35.011Z,17.83
2022-12-06T20:37:04.668Z,16.67
2022-12-06T20:39:34.899Z,16.93
2022-12-06T20:42:03.327Z,15.57
2022-12-06T20:44:30.894Z,16.37
2022-12-06T20:46:57.988Z,16.70
2022-12-06T20:49:25.120Z,17.57
2022-12-06T20:51:53.933Z,17.93
2022-12-06T20:54:21.812Z,17.70
2022-12-06T20:56:51.717Z,20.47
2022-12-06T20:59:19.698Z,18.30
2022-12-06T21:01:47.268Z,20.67
2022-12-06T21:04:14.984Z,19.57
2022-12-06T21:06:42.244Z,20.33
2022-12-06T21:09:09.490Z,21.30
2022-12-06T21:11:36.528Z,21.73
2022-12-06T21:14:04.426Z,22.13
2022-12-06T21:16:33.473Z,22.23
2022-12-06T21:19:04.722Z,21.27
2022-12-06T21:21:34.567Z,22.07
2022-12-06T21:24:03.225Z,22.90
2022-12-06T21:26:31.377Z,27.90
2022-12-06T21:28:58.491Z,21.87
2022-12-06T21:31:30.662Z,22.80
2022-12-06T21:33:57.890Z,22.70
2022-12-06T21:36:25.545Z,22.53
2022-12-06T21:38:53.630Z,22.17
2022-12-06T21:41:21.018Z,22.87
2022-12-06T21:43:48.554Z,23.53
2022-12-06T21:46:18.887Z,22.93
2022-12-06T21:48:51.237Z,26.03
2022-12-06T21:51:19.142Z,24.47
2022-12-06T21:53:46.359Z,24.23
2022-12-06T21:56:19.649Z,24.30
2022-12-06T21:58:47.343Z,24.17
2022-12-06T22:01:20.581Z,23.47
2022-12-06T22:03:48.926Z,23.57
2022-12-06T22:06:16.646Z,24.40
2022-12-06T22:08:45.092Z,25.53
2022-12-06T22:11:18.065Z,25.77
2022-12-06T22:13:46.356Z,25.87
2022-12-06T22:16:14.287Z,26.60
2022-12-06T22:18:45.617Z,27.13
2022-12-06T22:21:21.686Z,26.30
2022-12-06T22:23:49.029Z,28.23
2022-12-06T22:26:18.472Z,27.90
2022-12-06T22:28:46.263Z,32.23
2022-12-06T22:31:30.021Z,30.90
2022-12-06T22:33:58.114Z,31.37
2022-12-06T22:36:25.312Z,31.93
2022-12-06T22:38:57.092Z,33.87
2022-12-06T22:41:24.647Z,34.03
2022-12-06T22:43:54.008Z,34.10
2022-12-06T22:46:21.780Z,35.77
2022-12-06T22:48:49.199Z,37.13
2022-12-06T22:51:29.856Z,35.73
2022-12-06T22:54:02.320Z,38.00
2022-12-06T22:56:30.426Z,37.97
2022-12-06T22:58:59.167Z,40.50
2022-12-06T23:01:29.178Z,40.77
2022-12-06T23:03:58.583Z,43.40
2022-12-06T23:06:26.004Z,41.80
2022-12-06T23:08:54.184Z,43.07
2022-12-06T23:11:27.890Z,42.80
2022-12-06T23:13:56.221Z,44.43
2022-12-06T23:16:26.104Z,42.93
2022-12-06T23:18:53.303Z,44.47
2022-12-06T23:21:22.933Z,46.20
2022-12-06T23:23:55.335Z,45.10
2022-12-06T23:26:31.677Z,46.43
2022-12-06T23:28:58.921Z,42.03
2022-12-06T23:31:34.514Z,42.60
2022-12-06T23:34:07.076Z,43.80
2022-12-06T23:36:35.307Z,42.47
2022-12-06T23:39:02.846Z,42.60
2022-12-06T23:41:31.152Z,43.80
2022-12-06T23:43:58.998Z,41.77
2022-12-06T23:46:28.788Z,44.07
2022-12-06T23:48:56.732Z,42.63
2022-12-06T23:51:26.453Z,42.33
2022-12-06T23:53:57.021Z,42.37
2022-12-06T23:56:25.453Z,40.63
2022-12-06T23:58:52.884Z,39.47
